Briefing drone pour Chabris

Rechercher une autre localisation

Conditions de vol :


Nous sommes le : Vendredi 16 avril 2021
Il est 20:10 UTC (22:10 LT)

Lever de soleil : 04:36 UTC (06:36 LT)
Coucher de soleil : 19:10 UTC (21:10 LT)

Météo

L'essentiel des conditions de vol

VIGILANCE MÉTÉO FRANCE - Indre (36)
Pas de vigilances particulieres
METAR de LFYR
LFYR 162000Z AUTO 02004KT 330V060 CAVOK 08/M03 Q1025

Date d'émission: 16/04/2021
Heure d'émission: 20:00 UTC
Vent: 020° (variable du 330° au 060°) pour 4 KT (7 km/h)
Visibilité horizontale: > 10 km
Plafond : Plafond et visibilité OK (CAVOK)
Température: 8 °C
Point de rosée: -3 °C
Humidité: 46%
Pression (QNH): 1025 hPa
TAF de LFYR
AMD LFYR 161333Z 1613/1709 CNL

Conditions prévues :

Heure d'émission : Bulletin éffectué le 16 à 13:00 UTC
Prévision : Valide du 16 a 13:00 UTC au 17 a 09:00 UTC
Nuages : à 0ft (0 m)
WEBCAM POUR CHABRIS

Réglementation

Voler en sécurité

CARTES AERONAUTIQUE 1/500.000
CARTES VAC (LFYR)
SUP AIP




Chargement des AIP...
NOTAM (CHABRIS + Terrain à proximité / FIR )




Chargement des NOTAMS...
CONTACT PREFECTURE 36


Avertissement : Les données mises à disposition sont indicatives. Oxygène Drone ne pourra être tenu responsable de dégâts causés aux biens et aux personnes.